createdAt,value
2018-09-03T00:00:30.249Z,816.80
2018-09-03T00:01:30.260Z,816.74
2018-09-03T00:02:30.278Z,816.76
2018-09-03T00:03:30.291Z,816.72
2018-09-03T00:04:30.306Z,816.72
2018-09-03T00:05:30.322Z,816.68
2018-09-03T00:06:30.336Z,816.74
2018-09-03T00:07:30.355Z,816.68
2018-09-03T00:08:30.369Z,816.69
2018-09-03T00:09:30.383Z,816.65
2018-09-03T00:10:30.399Z,816.68
2018-09-03T00:11:30.414Z,816.69
2018-09-03T00:12:30.430Z,816.71
2018-09-03T00:13:30.443Z,816.67
2018-09-03T00:14:30.461Z,816.70
2018-09-03T00:15:30.474Z,816.73
2018-09-03T00:16:30.490Z,816.73
2018-09-03T00:17:30.505Z,816.70
2018-09-03T00:18:30.525Z,816.70
2018-09-03T00:19:30.537Z,816.71
2018-09-03T00:20:30.554Z,816.66
2018-09-03T00:21:30.566Z,816.68
2018-09-03T00:22:30.584Z,816.64
2018-09-03T00:23:30.598Z,816.65
2018-09-03T00:24:30.614Z,816.63
2018-09-03T00:25:30.628Z,816.63
2018-09-03T00:26:30.644Z,816.63
2018-09-03T00:27:30.658Z,816.63
2018-09-03T00:28:30.674Z,816.65
2018-09-03T00:29:30.689Z,816.62
2018-09-03T00:30:30.719Z,816.61
2018-09-03T00:31:30.723Z,816.60
2018-09-03T00:32:30.736Z,816.61
2018-09-03T00:33:30.751Z,816.60
2018-09-03T00:34:30.764Z,816.62
2018-09-03T00:35:30.782Z,816.62
2018-09-03T00:36:30.799Z,816.60
2018-09-03T00:37:30.814Z,816.61
2018-09-03T00:38:30.826Z,816.61
2018-09-03T00:39:30.846Z,816.62
2018-09-03T00:40:30.859Z,816.59
2018-09-03T00:41:30.871Z,816.59
2018-09-03T00:42:30.887Z,816.59
2018-09-03T00:43:30.904Z,816.58
2018-09-03T00:44:30.920Z,816.56
2018-09-03T00:45:30.933Z,816.60
2018-09-03T00:46:30.949Z,816.53
2018-09-03T00:47:30.964Z,816.56
2018-09-03T00:48:30.981Z,816.55
2018-09-03T00:49:30.995Z,816.58
2018-09-03T00:50:31.013Z,816.56
2018-09-03T00:51:31.023Z,816.59
2018-09-03T00:52:31.045Z,816.55
2018-09-03T00:53:31.062Z,816.55
2018-09-03T00:54:31.072Z,816.57
2018-09-03T00:55:31.088Z,816.60
2018-09-03T00:56:31.103Z,816.58
2018-09-03T00:57:31.116Z,816.59
2018-09-03T00:58:31.133Z,816.58
2018-09-03T00:59:31.147Z,816.57
2018-09-03T01:00:31.165Z,816.59
2018-09-03T01:01:31.178Z,816.55
2018-09-03T01:02:31.195Z,816.57
2018-09-03T01:03:31.208Z,816.56
2018-09-03T01:04:31.225Z,816.51
2018-09-03T01:05:31.237Z,816.52
2018-09-03T01:06:31.255Z,816.52
2018-09-03T01:07:31.269Z,816.52
2018-09-03T01:08:31.283Z,816.50
2018-09-03T01:09:31.338Z,816.54
2018-09-03T01:10:31.314Z,816.52
2018-09-03T01:11:31.329Z,816.50
2018-09-03T01:12:31.343Z,816.51
2018-09-03T01:13:31.359Z,816.51
2018-09-03T01:14:31.375Z,816.51
2018-09-03T01:15:31.388Z,816.49
2018-09-03T01:16:31.406Z,816.50
2018-09-03T01:17:31.424Z,816.49
2018-09-03T01:18:31.438Z,816.47
2018-09-03T01:19:31.448Z,816.43
2018-09-03T01:20:31.467Z,816.44
2018-09-03T01:21:31.479Z,816.44
2018-09-03T01:22:31.495Z,816.42
2018-09-03T01:23:31.511Z,816.42
2018-09-03T01:24:31.524Z,816.41
2018-09-03T01:25:31.540Z,816.41
2018-09-03T01:26:31.553Z,816.38
2018-09-03T01:27:31.568Z,816.40
2018-09-03T01:28:31.589Z,816.38
2018-09-03T01:29:31.639Z,816.37
2018-09-03T01:30:31.613Z,816.37
2018-09-03T01:31:31.629Z,816.33
2018-09-03T01:32:31.644Z,816.35
2018-09-03T01:33:31.659Z,816.37
2018-09-03T01:34:31.674Z,816.33
2018-09-03T01:35:31.687Z,816.34
2018-09-03T01:36:31.703Z,816.34
2018-09-03T01:37:31.717Z,816.32
2018-09-03T01:38:31.733Z,816.27
2018-09-03T01:39:31.752Z,816.30
2018-09-03T01:40:31.764Z,816.23
2018-09-03T01:41:31.781Z,816.25
2018-09-03T01:42:31.793Z,816.26
2018-09-03T01:43:31.809Z,816.28
2018-09-03T01:44:31.823Z,816.23
2018-09-03T01:45:31.839Z,816.25
2018-09-03T01:46:31.852Z,816.27
2018-09-03T01:47:31.870Z,816.25
2018-09-03T01:48:31.882Z,816.27
2018-09-03T01:49:31.900Z,816.27
2018-09-03T01:50:31.915Z,816.29
2018-09-03T01:51:31.928Z,816.28
2018-09-03T01:52:31.943Z,816.31
2018-09-03T01:53:31.957Z,816.31
2018-09-03T01:54:31.973Z,816.26
2018-09-03T01:55:31.989Z,816.31
2018-09-03T01:56:32.002Z,816.29
2018-09-03T01:57:32.016Z,816.29
2018-09-03T01:58:32.032Z,816.27
2018-09-03T01:59:32.050Z,816.28
2018-09-03T02:00:32.064Z,816.29
2018-09-03T02:01:32.082Z,816.31
2018-09-03T02:02:32.092Z,816.33
2018-09-03T02:03:32.111Z,816.31
2018-09-03T02:04:32.120Z,816.32
2018-09-03T02:05:32.138Z,816.32
2018-09-03T02:06:32.152Z,816.30
2018-09-03T02:07:32.166Z,816.30
2018-09-03T02:08:32.184Z,816.29
2018-09-03T02:09:32.201Z,816.30
2018-09-03T02:10:32.212Z,816.27
2018-09-03T02:11:32.227Z,816.26
2018-09-03T02:12:32.242Z,816.24
2018-09-03T02:13:32.259Z,816.25
2018-09-03T02:14:32.272Z,816.25
2018-09-03T02:15:32.287Z,816.22
2018-09-03T02:16:32.305Z,816.26
2018-09-03T02:17:32.315Z,816.22
2018-09-03T02:18:32.332Z,816.24
2018-09-03T02:19:32.346Z,816.22
2018-09-03T02:20:32.364Z,816.24
2018-09-03T02:21:32.375Z,816.22
2018-09-03T02:22:32.390Z,816.21
2018-09-03T02:23:32.407Z,816.20
2018-09-03T02:24:32.421Z,816.24
2018-09-03T02:25:32.437Z,816.19
2018-09-03T02:26:32.451Z,816.21
2018-09-03T02:27:32.467Z,816.17
2018-09-03T02:28:32.482Z,816.19
2018-09-03T02:29:32.498Z,816.19
2018-09-03T02:30:32.510Z,816.21
2018-09-03T02:31:32.527Z,816.20
2018-09-03T02:32:32.541Z,816.18
2018-09-03T02:33:32.556Z,816.19
2018-09-03T02:34:32.573Z,816.17
2018-09-03T02:35:32.585Z,816.15
2018-09-03T02:36:32.601Z,816.15
2018-09-03T02:37:32.617Z,816.17
2018-09-03T02:38:32.630Z,816.17
2018-09-03T02:39:32.646Z,816.21
2018-09-03T02:40:32.663Z,816.16
2018-09-03T02:41:32.676Z,816.16
2018-09-03T02:42:32.692Z,816.14
2018-09-03T02:43:32.706Z,816.14
2018-09-03T02:44:32.723Z,816.18
2018-09-03T02:45:32.734Z,816.15
2018-09-03T02:46:32.749Z,816.18
2018-09-03T02:47:32.767Z,816.18
2018-09-03T02:48:32.787Z,816.17
2018-09-03T02:49:32.794Z,816.16
2018-09-03T02:50:32.815Z,816.16
2018-09-03T02:51:32.825Z,816.18
2018-09-03T02:52:32.846Z,816.17
2018-09-03T02:53:32.854Z,816.18
2018-09-03T02:54:32.869Z,816.15
2018-09-03T02:55:32.889Z,816.17
2018-09-03T02:56:32.899Z,816.17
2018-09-03T02:57:32.912Z,816.16
2018-09-03T02:58:32.927Z,816.12
2018-09-03T02:59:32.943Z,816.14
2018-09-03T03:00:32.963Z,816.14
2018-09-03T03:01:32.974Z,816.11
2018-09-03T03:02:32.994Z,816.10
2018-09-03T03:03:33.007Z,816.14
2018-09-03T03:04:33.019Z,816.14
2018-09-03T03:05:33.031Z,816.16
2018-09-03T03:06:33.046Z,816.13
2018-09-03T03:07:33.065Z,816.12
2018-09-03T03:08:33.078Z,816.11
2018-09-03T03:09:33.091Z,816.10
2018-09-03T03:10:33.109Z,816.12
2018-09-03T03:11:33.126Z,816.13
2018-09-03T03:12:33.138Z,816.14
2018-09-03T03:13:33.151Z,816.17
2018-09-03T03:14:33.165Z,816.14
2018-09-03T03:15:33.189Z,816.12
2018-09-03T03:16:33.198Z,816.10
2018-09-03T03:17:33.209Z,816.11
2018-09-03T03:18:33.228Z,816.09
2018-09-03T03:19:33.240Z,816.10
2018-09-03T03:20:33.255Z,816.07
2018-09-03T03:21:33.270Z,816.07
2018-09-03T03:22:33.286Z,816.05
2018-09-03T03:23:33.301Z,816.08
2018-09-03T03:24:33.313Z,816.06
2018-09-03T03:25:33.328Z,816.03
2018-09-03T03:26:33.343Z,816.03
2018-09-03T03:27:33.361Z,815.97
2018-09-03T03:28:33.378Z,815.99
2018-09-03T03:29:33.386Z,815.97
2018-09-03T03:30:33.403Z,815.92
2018-09-03T03:31:33.417Z,815.94
2018-09-03T03:32:33.431Z,815.94
2018-09-03T03:33:33.445Z,815.91
2018-09-03T03:34:33.462Z,815.93
2018-09-03T03:35:33.477Z,815.95
2018-09-03T03:36:33.489Z,815.92
2018-09-03T03:37:33.504Z,815.92
2018-09-03T03:38:33.520Z,815.92
2018-09-03T03:39:33.535Z,815.93
2018-09-03T03:40:33.549Z,815.89
2018-09-03T03:41:33.560Z,815.88
2018-09-03T03:42:33.578Z,815.88
2018-09-03T03:43:33.590Z,815.87
2018-09-03T03:44:33.605Z,815.88
2018-09-03T03:45:33.621Z,815.87
2018-09-03T03:46:33.634Z,815.88
2018-09-03T03:47:33.647Z,815.86
2018-09-03T03:48:33.736Z,815.84
2018-09-03T03:49:33.677Z,815.82
2018-09-03T03:50:33.697Z,815.81
2018-09-03T03:51:33.705Z,815.81
2018-09-03T03:52:33.718Z,815.78
2018-09-03T03:53:33.741Z,815.82
2018-09-03T03:54:33.759Z,815.84
2018-09-03T03:55:33.762Z,815.81
2018-09-03T03:56:33.779Z,815.83
2018-09-03T03:57:33.793Z,815.78
2018-09-03T03:58:33.811Z,815.81
2018-09-03T03:59:33.820Z,815.84
2018-09-03T04:00:33.836Z,815.81
2018-09-03T04:01:33.849Z,815.83
2018-09-03T04:02:33.864Z,815.79
2018-09-03T04:03:33.881Z,815.79
2018-09-03T04:04:33.897Z,815.81
2018-09-03T04:05:33.910Z,815.85
2018-09-03T04:06:33.923Z,815.85
2018-09-03T04:07:33.938Z,815.83
2018-09-03T04:08:33.955Z,815.89
2018-09-03T04:09:33.965Z,815.87
2018-09-03T04:10:33.982Z,815.85
2018-09-03T04:11:33.996Z,815.88
2018-09-03T04:12:34.011Z,815.87
2018-09-03T04:13:34.025Z,815.93
2018-09-03T04:14:34.040Z,815.86
2018-09-03T04:15:34.053Z,815.89
2018-09-03T04:16:34.069Z,815.88
2018-09-03T04:17:34.088Z,815.91
2018-09-03T04:18:34.099Z,815.87
2018-09-03T04:19:34.115Z,815.88
2018-09-03T04:20:34.134Z,815.89
2018-09-03T04:21:34.143Z,815.88
2018-09-03T04:22:34.158Z,815.86
2018-09-03T04:23:34.173Z,815.82
2018-09-03T04:24:34.188Z,815.79
2018-09-03T04:25:34.203Z,815.82
2018-09-03T04:26:34.215Z,815.80
2018-09-03T04:27:34.231Z,815.79
2018-09-03T04:28:34.251Z,815.81
2018-09-03T04:29:34.261Z,815.79
2018-09-03T04:30:34.273Z,815.79
2018-09-03T04:31:34.295Z,815.78
2018-09-03T04:32:34.304Z,815.76
2018-09-03T04:33:34.319Z,815.79
2018-09-03T04:34:34.334Z,815.80
2018-09-03T04:35:34.347Z,815.81
2018-09-03T04:36:34.371Z,815.80
2018-09-03T04:37:34.377Z,815.79
2018-09-03T04:38:34.433Z,815.78
2018-09-03T04:39:34.405Z,815.74
2018-09-03T04:40:34.422Z,815.79
2018-09-03T04:41:34.437Z,815.79
2018-09-03T04:42:34.450Z,815.79
2018-09-03T04:43:34.463Z,815.79
2018-09-03T04:44:34.480Z,815.79
2018-09-03T04:45:34.495Z,815.81
2018-09-03T04:46:34.507Z,815.82
2018-09-03T04:47:34.524Z,815.78
2018-09-03T04:48:34.537Z,815.78
2018-09-03T04:49:34.549Z,815.80
2018-09-03T04:50:34.567Z,815.78
2018-09-03T04:51:34.580Z,815.77
2018-09-03T04:52:34.594Z,815.76
2018-09-03T04:53:34.609Z,815.80
2018-09-03T04:54:34.638Z,815.76
2018-09-03T04:55:34.640Z,815.74
2018-09-03T04:56:34.653Z,815.74
2018-09-03T04:57:34.668Z,815.71
2018-09-03T04:58:34.683Z,815.76
2018-09-03T04:59:34.697Z,815.74
2018-09-03T05:00:34.713Z,815.73
2018-09-03T05:01:34.726Z,815.73
2018-09-03T05:02:34.744Z,815.74
2018-09-03T05:03:34.755Z,815.74
2018-09-03T05:04:34.773Z,815.74
2018-09-03T05:05:34.796Z,815.73
2018-09-03T05:06:34.829Z,815.77
2018-09-03T05:07:34.815Z,815.78
2018-09-03T05:08:34.832Z,815.76
2018-09-03T05:09:34.844Z,815.79
2018-09-03T05:10:34.859Z,815.75
2018-09-03T05:11:34.890Z,815.74
2018-09-03T05:12:34.890Z,815.75
2018-09-03T05:13:34.901Z,815.77
2018-09-03T05:14:34.920Z,815.78
2018-09-03T05:15:34.935Z,815.76
2018-09-03T05:16:34.947Z,815.75
2018-09-03T05:17:34.961Z,815.78
2018-09-03T05:18:34.977Z,815.76
2018-09-03T05:19:34.990Z,815.78
2018-09-03T05:20:35.006Z,815.79
2018-09-03T05:21:35.023Z,815.77
2018-09-03T05:22:35.033Z,815.80
2018-09-03T05:23:35.049Z,815.80
2018-09-03T05:24:35.066Z,815.82
2018-09-03T05:25:35.076Z,815.83
2018-09-03T05:26:35.094Z,815.88
2018-09-03T05:27:35.109Z,815.91
2018-09-03T05:28:35.122Z,815.92
2018-09-03T05:29:35.138Z,815.95
2018-09-03T05:30:35.152Z,815.93
2018-09-03T05:31:35.168Z,815.90
2018-09-03T05:32:35.179Z,815.92
2018-09-03T05:33:35.193Z,815.90
2018-09-03T05:34:35.207Z,815.90
2018-09-03T05:35:35.223Z,815.87
2018-09-03T05:36:35.240Z,815.90
2018-09-03T05:37:35.250Z,815.85
2018-09-03T05:38:35.268Z,815.90
2018-09-03T05:39:35.282Z,815.90
2018-09-03T05:40:35.300Z,815.88
2018-09-03T05:41:35.308Z,815.87
2018-09-03T05:42:35.325Z,815.88
2018-09-03T05:43:35.600Z,815.90
2018-09-03T05:44:35.353Z,815.90
2018-09-03T05:45:35.367Z,815.90
2018-09-03T05:46:35.381Z,815.89
2018-09-03T05:47:35.396Z,815.91
2018-09-03T05:48:35.416Z,815.93
2018-09-03T05:49:35.426Z,815.90
2018-09-03T05:50:35.496Z,815.95
2018-09-03T05:51:35.461Z,815.96
2018-09-03T05:52:35.473Z,815.97
2018-09-03T05:53:35.485Z,815.96
2018-09-03T05:54:35.500Z,815.93
2018-09-03T05:55:35.514Z,815.95
2018-09-03T05:56:35.529Z,815.93
2018-09-03T05:57:35.543Z,815.95
2018-09-03T05:58:35.555Z,815.89
2018-09-03T05:59:35.570Z,815.94
2018-09-03T06:00:35.585Z,815.91
2018-09-03T06:01:35.598Z,815.93
2018-09-03T06:02:35.615Z,815.95
2018-09-03T06:03:35.628Z,815.93
2018-09-03T06:04:35.645Z,815.93
2018-09-03T06:05:35.657Z,815.88
2018-09-03T06:06:35.672Z,815.91
2018-09-03T06:07:35.685Z,815.92
2018-09-03T06:08:35.700Z,815.91
2018-09-03T06:09:35.713Z,815.92
2018-09-03T06:10:35.812Z,815.91
2018-09-03T06:11:35.743Z,815.94
2018-09-03T06:12:35.759Z,815.92
2018-09-03T06:13:35.772Z,815.90
2018-09-03T06:14:35.786Z,815.88
2018-09-03T06:15:35.800Z,815.91
2018-09-03T06:16:35.818Z,815.89
2018-09-03T06:17:35.827Z,815.88
2018-09-03T06:18:35.843Z,815.89
2018-09-03T06:19:35.861Z,815.86
2018-09-03T06:20:35.872Z,815.88
2018-09-03T06:21:35.885Z,815.84
2018-09-03T06:22:35.901Z,815.90
2018-09-03T06:23:35.916Z,815.90
2018-09-03T06:24:35.928Z,815.90
2018-09-03T06:25:35.942Z,815.85
2018-09-03T06:26:35.979Z,815.89
2018-09-03T06:27:35.972Z,815.92
2018-09-03T06:28:35.984Z,815.89
2018-09-03T06:29:35.997Z,815.93
2018-09-03T06:30:36.012Z,815.91
2018-09-03T06:31:36.028Z,815.97
2018-09-03T06:32:36.045Z,815.96
2018-09-03T06:33:36.057Z,815.95
2018-09-03T06:34:36.069Z,815.99
2018-09-03T06:35:36.084Z,815.98
2018-09-03T06:36:36.100Z,816.00
2018-09-03T06:37:36.115Z,815.99
2018-09-03T06:38:36.128Z,816.00
2018-09-03T06:39:36.146Z,816.00
2018-09-03T06:40:36.157Z,815.97
2018-09-03T06:41:36.171Z,815.96
2018-09-03T06:42:36.185Z,815.98
2018-09-03T06:43:36.198Z,816.00
2018-09-03T06:44:36.212Z,815.99
2018-09-03T06:45:36.227Z,815.99
2018-09-03T06:46:36.241Z,816.00
2018-09-03T06:47:36.255Z,816.02
2018-09-03T06:48:36.268Z,816.01
2018-09-03T06:49:36.283Z,816.01
2018-09-03T06:50:36.295Z,816.04
2018-09-03T06:51:36.311Z,816.01
2018-09-03T06:52:36.350Z,816.06
2018-09-03T06:53:36.395Z,816.06
2018-09-03T06:54:36.353Z,816.07
2018-09-03T06:55:36.366Z,816.08
2018-09-03T06:56:36.382Z,816.06
2018-09-03T06:57:36.397Z,816.08
2018-09-03T06:58:36.412Z,816.12
2018-09-03T06:59:36.455Z,816.11
2018-09-03T07:00:36.439Z,816.09
2018-09-03T07:01:36.453Z,816.10
2018-09-03T07:02:36.466Z,816.10
2018-09-03T07:03:36.482Z,816.14
2018-09-03T07:04:36.498Z,816.07
2018-09-03T07:05:36.510Z,816.13
2018-09-03T07:06:36.524Z,816.09
2018-09-03T07:07:36.538Z,816.13
2018-09-03T07:08:36.655Z,816.15
2018-09-03T07:09:36.566Z,816.14
2018-09-03T07:10:36.580Z,816.21
2018-09-03T07:11:36.595Z,816.21
2018-09-03T07:12:36.610Z,816.18
2018-09-03T07:13:36.622Z,816.17
2018-09-03T07:14:36.640Z,816.15
2018-09-03T07:15:36.651Z,816.16
2018-09-03T07:16:36.667Z,816.16
2018-09-03T07:17:36.682Z,816.15
2018-09-03T07:18:36.707Z,816.13
2018-09-03T07:19:36.714Z,816.11
2018-09-03T07:20:36.730Z,816.08
2018-09-03T07:21:36.742Z,816.08
2018-09-03T07:22:36.752Z,816.07
2018-09-03T07:23:36.768Z,816.07
2018-09-03T07:24:36.779Z,816.07
2018-09-03T07:25:36.792Z,816.06
2018-09-03T07:26:36.807Z,816.05
2018-09-03T07:27:36.821Z,816.07
2018-09-03T07:28:36.837Z,816.07
2018-09-03T07:29:36.848Z,816.07
2018-09-03T07:30:36.864Z,816.09
2018-09-03T07:31:36.878Z,816.09
2018-09-03T07:32:36.892Z,816.10
2018-09-03T07:33:36.903Z,816.09
2018-09-03T07:34:36.924Z,816.09
2018-09-03T07:35:36.953Z,816.10
2018-09-03T07:36:36.947Z,816.11
2018-09-03T07:37:36.962Z,816.12
2018-09-03T07:38:36.978Z,816.16
2018-09-03T07:39:36.989Z,816.17
2018-09-03T07:40:37.003Z,816.16
2018-09-03T07:41:37.020Z,816.18
2018-09-03T07:42:37.038Z,816.20
2018-09-03T07:43:37.045Z,816.20
2018-09-03T07:44:37.059Z,816.25
2018-09-03T07:45:37.074Z,816.24
2018-09-03T07:46:37.088Z,816.26
2018-09-03T07:47:37.170Z,816.23
2018-09-03T07:48:37.116Z,816.30
2018-09-03T07:49:37.132Z,816.24
2018-09-03T07:50:37.145Z,816.24
2018-09-03T07:51:37.160Z,816.23
2018-09-03T07:52:37.173Z,816.24
2018-09-03T07:53:37.185Z,816.22
2018-09-03T07:54:37.199Z,816.25
2018-09-03T07:55:37.212Z,816.19
2018-09-03T07:56:37.228Z,816.24
2018-09-03T07:57:37.243Z,816.26
2018-09-03T07:58:37.255Z,816.22
2018-09-03T07:59:37.270Z,816.20
2018-09-03T08:00:37.285Z,816.23
2018-09-03T08:01:37.299Z,816.26
2018-09-03T08:02:37.312Z,816.26
2018-09-03T08:03:37.328Z,816.22
2018-09-03T08:04:37.343Z,816.24
2018-09-03T08:05:37.353Z,816.25
2018-09-03T08:06:37.369Z,816.21
2018-09-03T08:07:37.383Z,816.25
2018-09-03T08:08:37.398Z,816.24
2018-09-03T08:09:37.412Z,816.27
2018-09-03T08:10:37.426Z,816.26
2018-09-03T08:11:37.442Z,816.25
2018-09-03T08:12:37.457Z,816.26
2018-09-03T08:13:37.469Z,816.26
2018-09-03T08:14:37.486Z,816.24
2018-09-03T08:15:37.499Z,816.27
2018-09-03T08:16:37.513Z,816.32
2018-09-03T08:17:37.528Z,816.34
2018-09-03T08:18:37.544Z,816.31
2018-09-03T08:19:37.558Z,816.34
2018-09-03T08:20:37.572Z,816.29
2018-09-03T08:21:37.586Z,816.28
2018-09-03T08:22:37.601Z,816.31
2018-09-03T08:23:37.615Z,816.34
2018-09-03T08:24:37.630Z,816.31
2018-09-03T08:25:37.645Z,816.37
2018-09-03T08:26:37.659Z,816.31
2018-09-03T08:27:37.674Z,816.34
2018-09-03T08:28:37.691Z,816.39
2018-09-03T08:29:37.705Z,816.33
2018-09-03T08:30:37.720Z,816.36
2018-09-03T08:31:37.737Z,816.33
2018-09-03T08:32:37.751Z,816.39
2018-09-03T08:33:37.764Z,816.38
2018-09-03T08:34:37.783Z,816.44
2018-09-03T08:35:37.838Z,816.42
2018-09-03T08:36:37.811Z,816.41
2018-09-03T08:37:37.824Z,816.41
2018-09-03T08:38:37.844Z,816.42
2018-09-03T08:39:37.856Z,816.44
2018-09-03T08:40:37.870Z,816.43
2018-09-03T08:41:37.889Z,816.40
2018-09-03T08:42:37.902Z,816.40
2018-09-03T08:43:37.917Z,816.38
2018-09-03T08:44:37.957Z,816.40
2018-09-03T08:45:37.950Z,816.41
2018-09-03T08:46:37.961Z,816.41
2018-09-03T08:47:37.978Z,816.38
2018-09-03T08:48:37.992Z,816.43
2018-09-03T08:49:38.008Z,816.40
2018-09-03T08:50:38.026Z,816.41
2018-09-03T08:51:38.037Z,816.47
2018-09-03T08:52:38.062Z,816.42
2018-09-03T08:53:38.066Z,816.41
2018-09-03T08:54:38.081Z,816.43
2018-09-03T08:55:38.098Z,816.43
2018-09-03T08:56:38.137Z,816.39
2018-09-03T08:57:38.129Z,816.35
2018-09-03T08:58:38.148Z,816.41
2018-09-03T08:59:38.162Z,816.43
2018-09-03T09:00:38.177Z,816.41
2018-09-03T09:01:38.188Z,816.43
2018-09-03T09:02:38.207Z,816.39
2018-09-03T09:03:38.223Z,816.39
2018-09-03T09:04:38.239Z,816.39
2018-09-03T09:05:38.254Z,816.40
2018-09-03T09:06:38.269Z,816.43
2018-09-03T09:07:38.285Z,816.42
2018-09-03T09:08:38.299Z,816.41
2018-09-03T09:09:38.317Z,816.37
2018-09-03T09:10:38.332Z,816.35
2018-09-03T09:11:38.407Z,816.32
2018-09-03T09:12:38.365Z,816.33
2018-09-03T09:13:38.383Z,816.35
2018-09-03T09:14:38.395Z,816.33
2018-09-03T09:15:38.412Z,816.37
2018-09-03T09:16:38.429Z,816.34
2018-09-03T09:17:38.504Z,816.32
2018-09-03T09:18:38.457Z,816.31
2018-09-03T09:19:38.473Z,816.35
2018-09-03T09:20:38.494Z,816.37
2018-09-03T09:21:38.506Z,816.39
2018-09-03T09:22:38.522Z,816.39
2018-09-03T09:23:38.538Z,816.36
2018-09-03T09:24:38.555Z,816.34
2018-09-03T09:25:38.570Z,816.36
2018-09-03T09:26:38.589Z,816.38
2018-09-03T09:27:38.603Z,816.33
2018-09-03T09:28:38.622Z,816.36
2018-09-03T09:29:38.631Z,816.32
2018-09-03T09:30:38.652Z,816.38
2018-09-03T09:31:38.665Z,816.34
2018-09-03T09:32:38.685Z,816.34
2018-09-03T09:33:38.700Z,816.33
2018-09-03T09:34:38.712Z,816.28
2018-09-03T09:35:38.764Z,816.30
2018-09-03T09:36:38.779Z,816.32
2018-09-03T09:37:38.761Z,816.32
2018-09-03T09:38:38.778Z,816.33
2018-09-03T09:39:38.794Z,816.29
2018-09-03T09:40:38.811Z,816.35
2018-09-03T09:41:38.825Z,816.33
2018-09-03T09:42:38.845Z,816.35
2018-09-03T09:43:38.860Z,816.33
2018-09-03T09:44:38.880Z,816.34
2018-09-03T09:45:38.893Z,816.29
2018-09-03T09:46:38.914Z,816.35
2018-09-03T09:47:38.928Z,816.33
2018-09-03T09:48:38.944Z,816.30
2018-09-03T09:49:38.959Z,816.30
2018-09-03T09:50:38.976Z,816.31
2018-09-03T09:51:38.997Z,816.26
2018-09-03T09:52:39.010Z,816.28
2018-09-03T09:53:39.025Z,816.26
2018-09-03T09:54:39.044Z,816.29
2018-09-03T09:55:39.062Z,816.29
2018-09-03T09:56:39.077Z,816.36
2018-09-03T09:57:39.094Z,816.34
2018-09-03T09:58:39.117Z,816.31
2018-09-03T09:59:39.129Z,816.31
2018-09-03T10:00:39.146Z,816.30
2018-09-03T10:01:39.162Z,816.35
2018-09-03T10:02:39.180Z,816.34
2018-09-03T10:03:39.196Z,816.33
2018-09-03T10:04:39.216Z,816.28
2018-09-03T10:05:39.231Z,816.29
2018-09-03T10:06:39.248Z,816.30
2018-09-03T10:07:39.265Z,816.30
2018-09-03T10:08:39.284Z,816.30
2018-09-03T10:09:39.301Z,816.29
2018-09-03T10:10:39.319Z,816.32
2018-09-03T10:11:39.337Z,816.27
2018-09-03T10:12:39.356Z,816.29
2018-09-03T10:13:39.375Z,816.29
2018-09-03T10:14:39.395Z,816.23
2018-09-03T10:15:39.408Z,816.27
2018-09-03T10:16:39.427Z,816.35
2018-09-03T10:17:39.444Z,816.31
2018-09-03T10:18:39.466Z,816.31
2018-09-03T10:19:39.483Z,816.28
2018-09-03T10:20:39.498Z,816.28
2018-09-03T10:21:39.516Z,816.28
2018-09-03T10:22:39.537Z,816.21
2018-09-03T10:23:39.555Z,816.20
2018-09-03T10:24:39.577Z,816.21
2018-09-03T10:25:39.592Z,816.22
2018-09-03T10:26:39.610Z,816.22
2018-09-03T10:27:39.629Z,816.21
2018-09-03T10:28:39.649Z,816.20
2018-09-03T10:29:39.667Z,816.15
2018-09-03T10:30:39.684Z,816.15
2018-09-03T10:31:39.708Z,816.16
2018-09-03T10:32:39.722Z,816.19
2018-09-03T10:33:39.740Z,816.15
2018-09-03T10:34:39.767Z,816.19
2018-09-03T10:35:39.784Z,816.15
2018-09-03T10:36:39.802Z,816.18
2018-09-03T10:37:39.819Z,816.19
2018-09-03T10:38:39.836Z,816.18
2018-09-03T10:39:39.857Z,816.18
2018-09-03T10:40:39.876Z,816.17
2018-09-03T10:41:39.897Z,816.18
2018-09-03T10:42:39.913Z,816.12
2018-09-03T10:43:39.933Z,816.17
2018-09-03T10:44:39.952Z,816.19
2018-09-03T10:45:39.970Z,816.20
2018-09-03T10:46:39.988Z,816.24
2018-09-03T10:47:40.183Z,816.17
2018-09-03T10:48:40.029Z,816.05
2018-09-03T10:49:40.047Z,816.06
2018-09-03T10:50:40.067Z,816.15
2018-09-03T10:51:40.085Z,816.14
2018-09-03T10:52:40.108Z,816.16
2018-09-03T10:53:40.124Z,816.17
2018-09-03T10:54:40.142Z,816.15
2018-09-03T10:55:40.163Z,816.12
2018-09-03T10:56:40.181Z,816.15
2018-09-03T10:57:40.202Z,816.16
2018-09-03T10:58:40.219Z,816.18
2018-09-03T10:59:40.243Z,816.17
2018-09-03T11:00:40.257Z,816.14
2018-09-03T11:01:40.278Z,816.18
2018-09-03T11:02:40.298Z,816.14
2018-09-03T11:03:40.317Z,816.15
2018-09-03T11:04:40.336Z,816.11
2018-09-03T11:05:40.354Z,816.04
2018-09-03T11:06:40.375Z,816.08
2018-09-03T11:07:40.395Z,816.03
2018-09-03T11:08:40.416Z,816.09
2018-09-03T11:09:40.433Z,816.07
2018-09-03T11:10:40.452Z,816.08
2018-09-03T11:11:40.474Z,816.11
2018-09-03T11:12:40.493Z,816.02
2018-09-03T11:13:40.512Z,816.03
2018-09-03T11:14:40.533Z,816.00
2018-09-03T11:15:40.552Z,815.96
2018-09-03T11:16:40.573Z,816.04
2018-09-03T11:17:40.592Z,815.99
2018-09-03T11:18:40.613Z,815.98
2018-09-03T11:19:40.634Z,815.94
2018-09-03T11:20:40.655Z,815.98
2018-09-03T11:21:40.825Z,815.94
2018-09-03T11:22:40.696Z,815.96
2018-09-03T11:23:40.718Z,815.93
2018-09-03T11:24:40.735Z,815.91
2018-09-03T11:25:40.756Z,815.87
2018-09-03T11:26:40.775Z,815.89
2018-09-03T11:27:40.795Z,815.87
2018-09-03T11:28:40.850Z,815.86
2018-09-03T11:29:40.835Z,815.87
2018-09-03T11:30:40.856Z,815.88
2018-09-03T11:31:40.875Z,815.87
2018-09-03T11:32:40.899Z,815.90
2018-09-03T11:33:40.915Z,815.92
2018-09-03T11:34:40.935Z,815.87
2018-09-03T11:35:40.960Z,815.89
2018-09-03T11:36:40.980Z,815.87
2018-09-03T11:37:40.998Z,815.85
2018-09-03T11:38:41.020Z,815.85
2018-09-03T11:39:41.042Z,815.83
2018-09-03T11:40:41.101Z,815.83
2018-09-03T11:41:41.083Z,815.86
2018-09-03T11:42:41.110Z,815.84
2018-09-03T11:43:41.127Z,815.86
2018-09-03T11:44:41.145Z,815.87
2018-09-03T11:45:41.165Z,815.87
2018-09-03T11:46:41.187Z,815.85
2018-09-03T11:47:41.208Z,815.79
2018-09-03T11:48:41.230Z,815.81
2018-09-03T11:49:41.249Z,815.94
2018-09-03T11:50:41.271Z,815.89
2018-09-03T11:51:41.290Z,815.80
2018-09-03T11:52:41.311Z,815.77
2018-09-03T11:53:41.330Z,815.85
2018-09-03T11:54:41.351Z,815.82
2018-09-03T11:55:41.374Z,815.81
2018-09-03T11:56:41.404Z,815.80
2018-09-03T11:57:41.413Z,815.80
2018-09-03T11:58:41.436Z,815.74
2018-09-03T11:59:41.459Z,815.76
2018-09-03T12:00:41.570Z,815.82
2018-09-03T12:01:41.498Z,815.77
2018-09-03T12:02:41.519Z,815.75
2018-09-03T12:03:41.540Z,815.81
2018-09-03T12:04:41.563Z,815.81
2018-09-03T12:05:41.587Z,815.82
2018-09-03T12:06:41.665Z,815.81
2018-09-03T12:07:41.626Z,815.81
2018-09-03T12:08:41.646Z,815.78
2018-09-03T12:09:41.667Z,815.84
2018-09-03T12:10:41.690Z,815.81
2018-09-03T12:11:41.707Z,815.78
2018-09-03T12:12:41.729Z,815.85
2018-09-03T12:13:41.748Z,815.83
2018-09-03T12:14:41.770Z,815.82
2018-09-03T12:15:41.791Z,815.82
2018-09-03T12:16:41.812Z,815.77
2018-09-03T12:17:41.835Z,815.78
2018-09-03T12:18:41.852Z,815.78
2018-09-03T12:19:41.876Z,815.78
2018-09-03T12:20:41.896Z,815.73
2018-09-03T12:21:41.917Z,815.84
2018-09-03T12:22:41.937Z,815.82
2018-09-03T12:23:41.960Z,815.81
2018-09-03T12:24:41.982Z,815.81
2018-09-03T12:25:42.003Z,815.81
2018-09-03T12:26:42.024Z,815.80
2018-09-03T12:27:42.063Z,815.86
2018-09-03T12:28:42.069Z,815.84